createdAt,value
2019-02-15T07:04:12.072Z,22.20
2019-02-15T07:06:42.380Z,20.07
2019-02-15T07:09:12.747Z,19.97
2019-02-15T07:11:43.092Z,18.60
2019-02-15T07:14:14.068Z,20.15
2019-02-15T07:16:44.242Z,20.57
2019-02-15T07:19:14.975Z,20.77
2019-02-15T07:21:47.046Z,21.67
2019-02-15T07:24:18.117Z,22.00
2019-02-15T07:26:49.223Z,21.37
2019-02-15T07:29:19.438Z,21.33
2019-02-15T07:31:49.731Z,19.90
2019-02-15T07:34:19.941Z,19.53
2019-02-15T07:36:50.164Z,20.67
2019-02-15T07:39:20.478Z,19.10
2019-02-15T07:41:51.705Z,21.13
2019-02-15T07:44:22.095Z,20.17
2019-02-15T07:46:52.463Z,19.70
2019-02-15T07:49:26.910Z,20.20
2019-02-15T07:51:55.376Z,20.23
2019-02-15T07:54:25.535Z,21.00
2019-02-15T07:56:55.752Z,19.40
2019-02-15T07:59:25.995Z,20.53
2019-02-15T08:02:01.908Z,20.77
2019-02-15T08:04:28.371Z,20.77
2019-02-15T08:06:58.712Z,20.63
2019-02-15T08:09:28.955Z,20.80
2019-02-15T08:11:59.937Z,20.87
2019-02-15T08:14:30.171Z,20.33
2019-02-15T08:17:00.442Z,21.80
2019-02-15T08:19:31.434Z,22.40
2019-02-15T08:22:02.417Z,22.50
2019-02-15T08:24:32.604Z,22.37
2019-02-15T08:27:03.395Z,22.70
2019-02-15T08:29:37.211Z,23.83
2019-02-15T08:32:08.159Z,23.70
2019-02-15T08:34:39.271Z,25.35
2019-02-15T08:37:09.500Z,24.57
2019-02-15T08:39:40.495Z,24.20
2019-02-15T08:42:10.666Z,24.80
2019-02-15T08:44:40.895Z,26.30
2019-02-15T08:47:13.384Z,27.17
2019-02-15T08:49:43.549Z,27.00
2019-02-15T08:52:13.686Z,27.63
2019-02-15T08:54:45.426Z,27.90
2019-02-15T08:57:15.958Z,27.80
2019-02-15T08:59:46.103Z,29.17
2019-02-15T09:02:19.670Z,30.80
2019-02-15T09:04:49.883Z,31.27
2019-02-15T09:07:20.823Z,31.40
2019-02-15T09:09:51.092Z,31.67
2019-02-15T09:12:22.111Z,28.80
2019-02-15T09:14:52.290Z,29.85
2019-02-15T09:17:22.535Z,28.57
2019-02-15T09:19:53.490Z,28.62
2019-02-15T09:22:23.678Z,25.83
2019-02-15T09:24:54.628Z,26.90
2019-02-15T09:28:02.180Z,25.97
2019-02-15T09:30:32.308Z,24.00
2019-02-15T09:33:02.538Z,23.30
2019-02-15T09:35:32.702Z,23.73
2019-02-15T09:38:04.398Z,22.35
2019-02-15T09:40:35.397Z,23.20
2019-02-15T09:43:06.378Z,21.90
2019-02-15T09:45:36.521Z,20.53
2019-02-15T09:48:07.553Z,20.43
2019-02-15T09:50:37.751Z,20.80
2019-02-15T09:53:07.938Z,21.00
2019-02-15T09:55:38.115Z,22.27
2019-02-15T09:58:09.847Z,22.23
2019-02-15T10:00:40.113Z,21.57
2019-02-15T10:03:10.269Z,21.30
2019-02-15T10:05:40.428Z,21.73
2019-02-15T10:08:10.628Z,22.70
2019-02-15T10:10:41.876Z,19.80
2019-02-15T10:13:12.108Z,20.10
2019-02-15T10:15:43.851Z,20.27
2019-02-15T10:18:14.038Z,20.27
2019-02-15T10:20:44.398Z,21.43
2019-02-15T10:23:16.511Z,20.23
2019-02-15T10:25:46.704Z,18.23
2019-02-15T10:28:16.940Z,18.95
2019-02-15T10:30:47.127Z,17.67
2019-02-15T10:33:18.113Z,18.70
2019-02-15T10:35:48.289Z,19.10
2019-02-15T10:38:19.334Z,16.83
2019-02-15T10:40:49.529Z,18.30
2019-02-15T10:43:19.718Z,19.43
2019-02-15T10:45:50.709Z,17.37
2019-02-15T10:48:22.333Z,19.30
2019-02-15T10:50:52.555Z,19.00
2019-02-15T10:53:23.160Z,18.10
2019-02-15T10:55:54.076Z,17.63
2019-02-15T10:58:26.339Z,18.10
2019-02-15T11:00:56.333Z,16.57
2019-02-15T11:03:26.624Z,16.33
2019-02-15T11:05:56.848Z,16.83
2019-02-15T11:08:27.085Z,15.40
2019-02-15T11:10:57.429Z,16.00
2019-02-15T11:13:27.988Z,17.53
2019-02-15T11:15:58.955Z,15.60
2019-02-15T11:18:29.163Z,16.27
2019-02-15T11:21:00.089Z,15.20
2019-02-15T11:23:30.310Z,15.70
2019-02-15T11:26:00.572Z,16.43
2019-02-15T11:28:30.835Z,15.10
2019-02-15T11:31:01.017Z,15.83
2019-02-15T11:33:32.193Z,14.30
2019-02-15T11:36:02.383Z,14.90
2019-02-15T11:38:33.374Z,14.67
2019-02-15T11:41:10.955Z,15.10
2019-02-15T11:43:35.517Z,13.80
2019-02-15T11:46:05.714Z,15.30
2019-02-15T11:48:37.228Z,15.30
2019-02-15T11:51:07.413Z,14.93
2019-02-15T11:53:39.156Z,13.30
2019-02-15T11:56:11.686Z,13.50
2019-02-15T11:58:41.912Z,14.20
2019-02-15T12:01:12.068Z,14.43
2019-02-15T12:03:42.376Z,14.43
2019-02-15T12:06:14.052Z,14.47
2019-02-15T12:08:45.004Z,13.48
2019-02-15T12:11:15.179Z,13.65
2019-02-15T12:13:45.385Z,13.18
2019-02-15T12:16:15.536Z,13.60
2019-02-15T12:18:45.742Z,13.33
2019-02-15T12:21:15.964Z,13.33
2019-02-15T12:23:47.721Z,13.20
2019-02-15T12:26:17.925Z,12.60
2019-02-15T12:28:48.184Z,12.65
2019-02-15T12:31:18.388Z,12.85
2019-02-15T12:33:49.363Z,11.60
2019-02-15T12:36:19.542Z,12.85
2019-02-15T12:38:49.742Z,13.20
2019-02-15T12:41:19.961Z,12.10
2019-02-15T12:43:50.959Z,12.50
2019-02-15T12:46:21.905Z,12.50
2019-02-15T12:48:52.120Z,12.58
2019-02-15T12:51:23.965Z,12.40
2019-02-15T12:53:54.993Z,12.35
2019-02-15T12:56:26.707Z,11.30
2019-02-15T12:58:58.814Z,10.00
2019-02-15T13:01:29.739Z,10.77
2019-02-15T13:03:59.930Z,11.17
2019-02-15T13:06:30.160Z,9.53
2019-02-15T13:09:00.800Z,10.33
2019-02-15T13:11:30.982Z,10.80
2019-02-15T13:14:01.182Z,9.17
2019-02-15T13:16:31.292Z,8.83
2019-02-15T13:19:03.150Z,10.40
2019-02-15T13:21:33.347Z,9.33
2019-02-15T13:24:04.001Z,10.37
2019-02-15T13:26:34.637Z,9.60
2019-02-15T13:29:05.300Z,9.47
2019-02-15T13:31:35.512Z,9.03
2019-02-15T13:34:05.731Z,9.73
2019-02-15T13:36:36.654Z,8.80
2019-02-15T13:39:07.389Z,11.33
2019-02-15T13:41:38.924Z,8.90
2019-02-15T13:44:10.905Z,7.70
2019-02-15T13:46:41.234Z,9.43
2019-02-15T13:49:12.948Z,10.00
2019-02-15T13:51:43.433Z,9.73
2019-02-15T13:54:13.607Z,10.37
2019-02-15T13:56:43.784Z,10.13
2019-02-15T13:59:13.997Z,10.37
2019-02-15T14:01:44.197Z,11.63
2019-02-15T14:04:14.465Z,9.00
2019-02-15T14:06:48.653Z,8.23
2019-02-15T14:09:18.914Z,8.70
2019-02-15T14:11:49.088Z,7.90
2019-02-15T14:14:19.262Z,9.33
2019-02-15T14:16:50.332Z,6.73
2019-02-15T14:19:21.325Z,8.10
2019-02-15T14:21:51.627Z,7.47
2019-02-15T14:24:21.920Z,5.77
2019-02-15T14:26:53.635Z,6.05
2019-02-15T14:29:23.890Z,5.20
2019-02-15T14:31:54.182Z,5.20
2019-02-15T14:34:25.094Z,5.50
2019-02-15T14:36:55.341Z,5.73
2019-02-15T14:39:25.667Z,4.77
2019-02-15T14:41:55.877Z,4.70
2019-02-15T14:44:27.625Z,5.03
2019-02-15T14:46:57.862Z,5.03
2019-02-15T14:49:28.127Z,4.43
2019-02-15T14:51:58.460Z,5.17
2019-02-15T14:54:29.652Z,5.00
2019-02-15T14:57:00.101Z,4.80
2019-02-15T14:59:30.279Z,5.07
2019-02-15T15:02:01.359Z,4.33
2019-02-15T15:04:31.607Z,4.73
2019-02-15T15:07:02.298Z,4.50
2019-02-15T15:09:34.193Z,4.77
2019-02-15T15:12:04.505Z,4.53
2019-02-15T15:14:34.722Z,4.07
2019-02-15T15:17:04.992Z,4.60
2019-02-15T15:19:35.322Z,4.07
2019-02-15T15:22:06.069Z,4.37
2019-02-15T15:24:36.257Z,4.40
2019-02-15T15:27:07.221Z,4.30
2019-02-15T15:29:37.370Z,3.60
2019-02-15T15:32:07.587Z,4.73
2019-02-15T15:34:40.768Z,4.13
2019-02-15T15:37:16.619Z,4.60
2019-02-15T15:39:43.809Z,5.50
2019-02-15T15:42:15.918Z,5.17
2019-02-15T15:44:46.096Z,5.40
2019-02-15T15:47:17.075Z,4.95
2019-02-15T15:49:47.317Z,5.30
2019-02-15T15:52:19.399Z,4.90
2019-02-15T15:54:50.996Z,5.30
2019-02-15T15:57:22.144Z,5.72
2019-02-15T15:59:52.355Z,5.75
2019-02-15T16:02:24.252Z,5.90
2019-02-15T16:04:54.424Z,5.65
2019-02-15T16:07:24.717Z,5.70
2019-02-15T16:09:55.727Z,6.37
2019-02-15T16:12:25.893Z,6.03
2019-02-15T16:14:56.038Z,8.45
2019-02-15T16:17:29.577Z,10.38
2019-02-15T16:19:59.698Z,8.07
2019-02-15T16:22:29.920Z,7.07
2019-02-15T16:25:00.858Z,7.07
2019-02-15T16:27:31.119Z,7.43
2019-02-15T16:30:01.315Z,6.53
2019-02-15T16:32:36.212Z,6.73
2019-02-15T16:35:06.805Z,7.00
2019-02-15T16:37:36.970Z,8.13
2019-02-15T16:40:08.525Z,7.30
2019-02-15T16:42:39.638Z,6.67
2019-02-15T16:45:11.411Z,7.47
2019-02-15T16:47:42.433Z,6.97
2019-02-15T16:50:14.034Z,6.90
2019-02-15T16:52:44.210Z,8.07
2019-02-15T16:55:14.496Z,8.88
2019-02-15T16:57:45.477Z,8.40
2019-02-15T17:00:16.302Z,7.50
2019-02-15T17:02:46.464Z,7.80
2019-02-15T17:05:17.379Z,8.10
2019-02-15T17:07:47.769Z,7.93
2019-02-15T17:10:19.616Z,7.47
2019-02-15T17:12:51.646Z,7.10
2019-02-15T17:15:21.950Z,7.75
2019-02-15T17:17:52.995Z,7.75
2019-02-15T17:20:23.185Z,8.20
2019-02-15T17:22:54.445Z,8.20
2019-02-15T17:25:25.401Z,9.23
2019-02-15T17:27:55.685Z,10.20
2019-02-15T17:30:25.892Z,8.80
2019-02-15T17:32:56.098Z,9.00
2019-02-15T17:35:26.198Z,9.60
2019-02-15T17:37:56.405Z,18.20
2019-02-15T17:40:26.566Z,18.07
2019-02-15T17:42:58.439Z,17.20
2019-02-15T17:45:28.679Z,14.70
2019-02-15T17:47:59.652Z,15.60
2019-02-15T17:50:29.781Z,15.73
2019-02-15T17:53:00.839Z,16.63
2019-02-15T17:55:31.937Z,15.90
2019-02-15T17:58:02.873Z,15.50
2019-02-15T18:00:33.859Z,15.40
2019-02-15T18:03:04.022Z,15.30
2019-02-15T18:05:34.323Z,13.47
2019-02-15T18:08:04.586Z,13.23
2019-02-15T18:10:35.515Z,14.13
2019-02-15T18:13:05.730Z,12.67
2019-02-15T18:15:35.941Z,13.10
2019-02-15T18:18:06.154Z,13.97
2019-02-15T18:20:37.153Z,13.67
2019-02-15T18:23:09.107Z,12.10
2019-02-15T18:25:41.458Z,10.97
2019-02-15T18:28:11.668Z,13.10
2019-02-15T18:30:43.426Z,13.60
2019-02-15T18:33:13.754Z,11.60
2019-02-15T18:35:45.229Z,12.00
2019-02-15T18:38:15.458Z,13.58
2019-02-15T18:40:46.464Z,15.13
2019-02-15T18:43:16.655Z,15.60
2019-02-15T18:45:46.785Z,16.85
2019-02-15T18:48:18.525Z,15.83
2019-02-15T18:50:49.539Z,17.80
2019-02-15T18:53:19.747Z,17.73
2019-02-15T18:55:49.894Z,19.10
2019-02-15T18:58:20.809Z,20.43
2019-02-15T19:00:51.066Z,17.97
2019-02-15T19:03:22.044Z,18.70
2019-02-15T19:05:53.175Z,19.12
2019-02-15T19:08:24.203Z,19.42
2019-02-15T19:10:55.263Z,20.80
2019-02-15T19:13:25.443Z,20.13
2019-02-15T19:15:55.634Z,20.00
2019-02-15T19:18:25.823Z,19.23
2019-02-15T19:20:56.029Z,18.12
2019-02-15T19:23:26.246Z,18.67
2019-02-15T19:25:58.135Z,19.02
2019-02-15T19:28:28.370Z,18.77
2019-02-15T19:31:00.136Z,17.53
2019-02-15T19:33:30.414Z,19.17
2019-02-15T19:36:00.778Z,19.33
2019-02-15T19:38:31.849Z,18.70
2019-02-15T19:41:02.867Z,19.43
2019-02-15T19:43:33.141Z,19.57
2019-02-15T19:46:04.035Z,19.43
2019-02-15T19:48:34.342Z,20.03
2019-02-15T19:51:04.841Z,19.53
2019-02-15T19:53:35.297Z,19.97
2019-02-15T19:56:06.529Z,21.50
2019-02-15T19:58:36.916Z,22.83
2019-02-15T20:01:07.325Z,20.90
2019-02-15T20:03:39.953Z,19.73
2019-02-15T20:06:14.287Z,21.37
2019-02-15T20:08:45.897Z,19.87
2019-02-15T20:11:16.264Z,21.27
2019-02-15T20:13:47.416Z,19.23
2019-02-15T20:16:18.895Z,22.53
2019-02-15T20:18:50.880Z,20.73
2019-02-15T20:21:21.274Z,21.55
2019-02-15T20:23:51.669Z,20.82
2019-02-15T20:26:21.978Z,20.33
2019-02-15T20:28:53.990Z,20.77
2019-02-15T20:31:24.420Z,20.57
2019-02-15T20:33:55.956Z,20.03
2019-02-15T20:36:26.341Z,20.77
2019-02-15T20:38:56.712Z,23.52
2019-02-15T20:41:27.188Z,21.63
2019-02-15T20:43:57.654Z,22.17
2019-02-15T20:46:28.086Z,23.10
2019-02-15T20:49:04.644Z,22.00
2019-02-15T20:51:30.733Z,23.63
2019-02-15T20:54:01.916Z,24.32
2019-02-15T20:56:33.183Z,22.80
2019-02-15T20:59:03.674Z,21.03
2019-02-15T21:01:34.932Z,21.73
2019-02-15T21:04:05.293Z,23.10
2019-02-15T21:06:35.673Z,22.10
2019-02-15T21:09:07.616Z,22.87
2019-02-15T21:11:38.161Z,21.50
2019-02-15T21:14:08.457Z,20.27
2019-02-15T21:16:40.080Z,20.20
2019-02-15T21:19:10.407Z,20.43
2019-02-15T21:21:40.633Z,21.07
2019-02-15T21:24:10.939Z,21.30
2019-02-15T21:26:41.125Z,21.35
2019-02-15T21:29:12.380Z,21.43
2019-02-15T21:31:42.605Z,20.97
2019-02-15T21:34:13.845Z,20.40
2019-02-15T21:36:44.070Z,21.53
2019-02-15T21:39:15.066Z,23.13
2019-02-15T21:41:45.382Z,21.80
2019-02-15T21:44:15.660Z,22.00
2019-02-15T21:46:45.931Z,20.80
2019-02-15T21:49:17.038Z,22.02
2019-02-15T21:51:47.222Z,21.28
2019-02-15T21:54:17.436Z,22.47
2019-02-15T21:56:47.694Z,23.13
2019-02-15T21:59:18.286Z,22.10
2019-02-15T22:01:49.969Z,21.73
2019-02-15T22:04:21.741Z,23.67
2019-02-15T22:06:52.884Z,21.57
2019-02-15T22:09:24.603Z,22.33
2019-02-15T22:11:54.853Z,23.23
2019-02-15T22:14:25.058Z,20.10
2019-02-15T22:16:55.238Z,20.30
2019-02-15T22:19:25.854Z,22.37
2019-02-15T22:21:56.488Z,22.53
2019-02-15T22:24:27.663Z,22.60
2019-02-15T22:26:58.677Z,22.10
2019-02-15T22:29:28.851Z,23.80
2019-02-15T22:31:59.095Z,22.57
2019-02-15T22:34:29.289Z,25.10
2019-02-15T22:37:00.178Z,21.65
2019-02-15T22:39:30.395Z,21.97
2019-02-15T22:42:00.645Z,22.17
2019-02-15T22:44:30.824Z,20.93
2019-02-15T22:47:02.116Z,22.57
2019-02-15T22:49:43.150Z,22.17
2019-02-15T22:52:05.092Z,22.70
2019-02-15T22:54:35.304Z,22.10
2019-02-15T22:57:05.617Z,22.10
2019-02-15T22:59:35.780Z,21.60
2019-02-15T23:02:06.847Z,23.60
2019-02-15T23:04:36.993Z,21.70
2019-02-15T23:07:08.886Z,22.07
2019-02-15T23:09:39.057Z,20.87
2019-02-15T23:12:09.200Z,21.30
2019-02-15T23:14:39.413Z,20.17
2019-02-15T23:17:10.400Z,21.40
2019-02-15T23:19:40.591Z,20.83
2019-02-15T23:22:11.534Z,21.47
2019-02-15T23:24:42.578Z,21.27
2019-02-15T23:27:13.233Z,20.97
2019-02-15T23:29:43.454Z,21.27
2019-02-15T23:32:13.620Z,22.50
2019-02-15T23:34:43.818Z,22.67
2019-02-15T23:37:14.783Z,21.23
2019-02-15T23:39:45.003Z,21.30
2019-02-15T23:42:15.944Z,20.63
2019-02-15T23:44:46.247Z,21.48
2019-02-15T23:47:17.286Z,20.93
2019-02-15T23:49:47.435Z,21.00
2019-02-15T23:52:18.371Z,22.50
2019-02-15T23:54:49.473Z,20.50
2019-02-15T23:57:19.613Z,20.43
2019-02-15T23:59:49.883Z,23.60
